Time;durP1;ratioP1;P1;durP2;ratioP2;P2;SDS_P1;SDS_P2;PMS_P1;PMS_P2;Temp;Humidity;BMP_temperature;BMP_pressure;BME280_temperature;BME280_humidity;BME280_pressure;Samples;Min_cycle;Max_cycle;Signal;HPM_P1;HPM_P2
2021/06/10 00:00:24;;;;;;;19.40;17.60;;;19.30;99.90;;;19.69;70.09;102043.31;5093100;28;20075;-69
2021/06/10 00:02:52;;;;;;;15.02;13.63;;;19.20;99.90;;;19.74;70.36;102049.47;5093521;28;20052;-69
2021/06/10 00:05:22;;;;;;;18.13;16.42;;;19.20;99.90;;;19.62;69.75;102030.94;5093411;28;20044;-69
2021/06/10 00:07:50;;;;;;;18.55;16.60;;;19.30;99.90;;;19.82;70.03;102049.28;5093465;28;20141;-69
2021/06/10 00:10:23;;;;;;;17.77;16.08;;;19.30;99.90;;;19.80;69.52;102046.66;5091916;28;20086;-70
2021/06/10 00:12:53;;;;;;;18.52;16.33;;;19.30;99.90;;;19.78;68.97;102033.22;5093101;28;20048;-69
2021/06/10 00:15:24;;;;;;;18.02;16.20;;;19.40;99.90;;;19.81;69.16;102040.34;5093305;28;20074;-69
2021/06/10 00:17:52;;;;;;;18.13;16.45;;;19.40;99.90;;;19.85;68.88;102043.81;5093028;28;20044;-68
2021/06/10 00:20:24;;;;;;;17.00;15.40;;;19.40;99.90;;;19.89;68.50;102040.16;5093103;28;20051;-69
2021/06/10 00:22:54;;;;;;;14.38;13.07;;;19.40;99.90;;;19.78;68.37;102017.13;5091777;28;20355;-68
2021/06/10 00:25:24;;;;;;;;;;;19.40;99.90;;;19.94;68.14;102038.25;5093367;28;20051;-69
2021/06/10 00:27:52;;;;;;;14.30;12.90;;;19.50;99.90;;;19.94;68.45;102033.75;5092885;28;19927;-69
2021/06/10 00:30:22;;;;;;;13.93;12.02;;;19.50;99.90;;;19.61;68.58;101973.69;5093005;28;20048;-69
2021/06/10 00:32:51;;;;;;;15.98;14.38;;;19.50;99.90;;;19.93;70.00;102032.00;5091579;28;20446;-69
2021/06/10 00:35:21;;;;;;;16.27;14.70;;;19.40;99.90;;;19.89;70.40;102033.00;5092945;28;20048;-69
2021/06/10 00:37:50;;;;;;;13.65;12.43;;;19.30;99.90;;;19.87;70.62;102031.25;5092982;28;20067;-69
2021/06/10 00:40:18;;;;;;;14.13;12.77;;;19.30;99.90;;;19.86;70.42;102032.19;5092799;28;20051;-69
2021/06/10 00:42:48;;;;;;;12.13;11.02;;;19.40;99.90;;;19.74;69.73;102039.59;5093017;28;20079;-70
2021/06/10 00:45:20;;;;;;;13.32;12.13;;;19.30;99.90;;;19.69;70.07;102032.56;5092746;28;20101;-69
2021/06/10 00:47:50;;;;;;;12.20;11.18;;;19.20;99.90;;;19.10;71.07;101939.09;5092862;28;20206;-69
2021/06/10 00:50:21;;;;;;;12.73;11.63;;;19.10;99.90;;;19.45;72.50;102027.78;5092694;28;20040;-69
2021/06/10 00:52:49;;;;;;;13.43;12.10;;;18.90;99.90;;;19.11;73.45;102018.63;5100890;28;20285;-70
2021/06/10 00:55:17;;;;;;;12.38;11.27;;;18.70;99.90;;;19.03;74.18;102025.97;5112654;28;20100;-69
2021/06/10 00:57:45;;;;;;;12.13;11.02;;;18.50;99.90;;;19.17;73.93;102015.81;5112958;28;20048;-69
2021/06/10 01:00:17;;;;;;;13.48;12.18;;;18.50;99.90;;;19.05;72.00;102005.38;5112892;28;20051;-69
2021/06/10 01:02:45;;;;;;;12.38;11.32;;;18.60;99.90;;;18.99;72.31;102003.69;5112871;28;20071;-69
2021/06/10 01:05:14;;;;;;;12.73;11.63;;;18.60;99.90;;;19.03;71.01;102009.88;5113140;28;20052;-69
2021/06/10 01:07:50;;;;;;;13.60;12.27;;;18.60;99.90;;;19.00;70.96;102007.25;5113092;28;20054;-69
2021/06/10 01:10:30;;;;;;;14.00;12.60;;;18.60;99.90;;;18.93;71.25;102012.75;5112937;28;20105;-69
2021/06/10 01:13:08;;;;;;;14.00;12.60;;;18.50;99.90;;;19.03;70.84;102008.06;5112864;28;20048;-69
2021/06/10 01:15:43;;;;;;;14.60;13.23;;;18.60;99.90;;;19.09;70.84;102007.94;5112812;28;20126;-69
2021/06/10 01:18:13;;;;;;;13.65;12.40;;;18.60;99.90;;;19.05;70.86;101995.50;5094607;28;20507;-69
2021/06/10 01:20:43;;;;;;;13.00;11.80;;;18.60;99.90;;;19.15;71.32;102012.28;5112839;28;20048;-69
2021/06/10 01:23:25;;;;;;;14.40;13.00;;;18.60;99.90;;;19.22;70.81;102016.63;5094363;28;20400;-69
2021/06/10 01:26:24;;;;;;;14.85;13.45;;;18.70;99.90;;;19.25;69.99;102013.84;5112538;28;20043;-69
2021/06/10 01:28:54;;;;;;;15.07;13.68;;;18.80;99.90;;;19.22;69.85;101995.16;5082707;28;20055;-69
2021/06/10 01:31:23;;;;;;;15.53;13.93;;;18.90;99.90;;;19.31;69.93;102009.25;5094385;28;20087;-69
2021/06/10 01:33:54;;;;;;;14.52;13.13;;;18.80;99.90;;;19.35;69.73;102010.09;5112349;28;20498;-69
2021/06/10 01:36:27;;;;;;;14.63;13.15;;;18.90;99.90;;;19.47;68.60;102004.47;5094430;28;20071;-69
2021/06/10 01:38:58;;;;;;;16.25;13.38;;;18.90;99.90;;;19.49;69.19;101999.94;5112645;28;20040;-69
2021/06/10 01:41:27;;;;;;;14.27;12.77;;;19.00;99.90;;;19.40;67.97;102005.50;5112580;28;20367;-69
2021/06/10 01:43:58;;;;;;;13.98;12.57;;;19.00;99.90;;;19.28;67.45;101985.16;5112313;28;20485;-69
2021/06/10 01:46:28;;;;;;;;;;;18.90;99.90;;;19.26;67.21;101992.34;5112697;28;20039;-69
2021/06/10 01:48:57;;;;;;;14.17;12.83;;;18.90;99.90;;;19.26;68.92;101980.75;5112519;28;19923;-69
2021/06/10 01:51:29;;;;;;;15.50;14.10;;;18.80;99.90;;;19.24;69.74;101980.78;5112551;28;20653;-69
2021/06/10 01:54:03;;;;;;;14.95;13.48;;;18.70;99.90;;;19.20;69.39;101988.94;5093939;28;20093;-69
2021/06/10 01:56:32;;;;;;;15.27;13.68;;;18.70;99.90;;;19.26;69.25;101987.00;5112793;28;20051;-69
2021/06/10 01:59:03;;;;;;;14.40;13.02;;;18.70;99.90;;;19.32;69.92;101983.28;5112426;28;20047;-69
2021/06/10 02:01:32;;;;;;;15.93;12.07;;;18.80;99.90;;;19.22;70.61;101966.50;5112364;28;20048;-69
2021/06/10 02:04:03;;;;;;;14.65;13.10;;;18.80;99.90;;;19.18;67.92;101983.59;5112319;28;20032;-69
2021/06/10 02:06:33;;;;;;;13.15;11.95;;;18.70;99.90;;;19.15;66.41;101974.72;5114749;28;20048;-69
2021/06/10 02:09:05;;;;;;;12.43;10.68;;;18.70;99.90;;;19.07;65.14;101949.88;5116380;28;20408;-69
2021/06/10 02:11:34;;;;;;;8.75;7.95;;;18.70;99.90;;;19.30;64.08;101969.03;5116101;28;20052;-69
2021/06/10 02:14:03;;;;;;;8.25;7.45;;;18.80;99.90;;;19.43;62.74;101970.56;5115955;28;20163;-69
2021/06/10 02:16:33;;;;;;;8.88;7.93;;;18.90;99.90;;;19.45;62.06;101966.91;5116036;28;20055;-69
2021/06/10 02:19:01;;;;;;;9.35;8.32;;;19.00;99.90;;;19.31;61.67;101930.53;5115872;28;20381;-69
2021/06/10 02:21:30;;;;;;;9.98;8.73;;;19.00;99.90;;;19.57;61.47;101958.56;5115729;28;20044;-69
2021/06/10 02:23:58;;;;;;;9.98;8.85;;;19.10;99.90;;;19.54;61.29;101963.13;5115481;28;20441;-69
2021/06/10 02:26:27;;;;;;;11.05;10.00;;;19.10;99.90;;;19.33;61.69;101942.16;5115807;28;20047;-69
2021/06/10 02:28:56;;;;;;;11.68;10.23;;;19.10;99.90;;;19.35;62.67;101959.13;5115374;28;20134;-69
2021/06/10 02:31:26;;;;;;;12.57;10.30;;;19.00;99.90;;;19.36;62.35;101947.44;5097482;28;20052;-69
2021/06/10 02:33:54;;;;;;;10.75;9.73;;;18.90;99.90;;;19.31;62.54;101954.69;5115527;28;20409;-69
2021/06/10 02:36:22;;;;;;;12.13;10.55;;;18.90;99.90;;;19.32;62.84;101953.75;5115447;28;20047;-69
2021/06/10 02:38:54;;;;;;;11.63;10.43;;;18.90;99.90;;;19.31;63.09;101957.38;5115190;28;20055;-69
2021/06/10 02:41:27;;;;;;;11.82;10.63;;;18.90;99.90;;;19.37;63.23;101949.22;5115760;28;20064;-69
2021/06/10 02:43:56;;;;;;;14.57;10.70;;;18.90;99.90;;;19.47;63.11;101958.84;5115270;28;20048;-69
2021/06/10 02:46:27;;;;;;;11.85;10.73;;;19.00;99.90;;;19.57;63.09;101950.50;5115320;28;20044;-69
2021/06/10 02:48:57;;;;;;;12.73;11.02;;;19.00;99.90;;;19.65;62.80;101953.00;5115403;28;20123;-69
2021/06/10 02:51:30;;;;;;;13.45;12.05;;;19.10;99.90;;;19.72;62.77;101958.19;5115320;28;20084;-69
2021/06/10 02:53:59;;;;;;;12.63;11.15;;;19.20;99.90;;;19.78;62.86;101959.88;5096434;28;20166;-69
2021/06/10 02:56:27;;;;;;;12.75;10.98;;;19.30;99.90;;;19.82;62.90;101963.34;5115081;28;20047;-69
2021/06/10 02:58:56;;;;;;;13.50;12.18;;;19.30;99.90;;;19.80;62.58;101964.25;5115096;28;20119;-69
2021/06/10 03:01:26;;;;;;;11.85;10.73;;;19.30;99.90;;;19.83;62.10;101965.09;5096621;28;20500;-69
2021/06/10 03:03:54;;;;;;;12.88;11.43;;;19.30;99.90;;;19.81;61.72;101962.47;5115032;28;20059;-69
2021/06/10 03:06:23;;;;;;;12.55;11.13;;;19.40;99.90;;;19.84;61.54;101966.88;5115262;28;20051;-69
2021/06/10 03:08:53;;;;;;;12.50;11.27;;;19.40;99.90;;;19.78;62.55;101975.97;5114715;28;20603;-69
2021/06/10 03:11:22;;;;;;;12.45;11.20;;;19.30;99.90;;;19.73;63.07;101969.81;5114596;28;20493;-69
2021/06/10 03:13:51;;;;;;;12.88;11.57;;;19.30;99.90;;;19.60;64.71;101961.19;5114623;28;20043;-69
2021/06/10 03:16:20;;;;;;;11.10;9.93;;;19.20;99.90;;;19.54;64.42;101953.28;5114375;28;20104;-69
2021/06/10 03:18:51;;;;;;;12.95;11.73;;;19.10;99.90;;;19.50;63.74;101956.06;5114552;28;20040;-69
2021/06/10 03:21:20;;;;;;;14.02;10.27;;;19.00;99.90;;;19.52;63.68;101959.59;5114430;28;20039;-69
2021/06/10 03:23:48;;;;;;;11.07;9.88;;;19.00;99.90;;;19.48;63.13;101953.44;5114673;28;20036;-69
2021/06/10 03:26:19;;;;;;;11.90;9.82;;;19.00;99.90;;;19.54;62.63;101949.72;5096031;28;20052;-69
2021/06/10 03:28:47;;;;;;;11.02;9.93;;;19.00;99.90;;;19.59;62.34;101951.34;5114567;28;20055;-69
2021/06/10 03:31:15;;;;;;;9.93;8.90;;;19.10;99.90;;;19.55;62.40;101951.50;5114428;28;20101;-69
2021/06/10 03:33:44;;;;;;;10.93;9.30;;;19.10;99.90;;;19.53;62.23;101956.00;5095981;28;20088;-69
2021/06/10 03:36:14;;;;;;;10.75;9.32;;;19.10;99.90;;;19.47;64.60;101953.47;5114506;28;20036;-68
2021/06/10 03:38:43;;;;;;;9.88;8.98;;;19.00;99.90;;;19.23;66.69;101945.94;5114354;28;20055;-69
2021/06/10 03:41:12;;;;;;;10.52;9.63;;;18.80;99.90;;;19.14;67.90;101948.84;5114420;28;20048;-69
2021/06/10 03:43:41;;;;;;;13.27;11.90;;;18.60;99.90;;;19.01;68.02;101950.03;5095585;28;20070;-70
2021/06/10 03:46:11;;;;;;;13.93;11.30;;;18.50;99.90;;;18.96;68.44;101954.59;5114253;28;20044;-71
2021/06/10 03:48:40;;;;;;;10.82;9.52;;;18.40;99.90;;;18.89;66.36;101945.81;5114052;28;20051;-69
2021/06/10 03:51:15;;;;;;;10.75;9.43;;;18.40;99.90;;;18.88;65.47;101944.91;5113806;28;20055;-70
2021/06/10 03:53:44;;;;;;;11.45;9.38;;;18.40;99.90;;;18.89;65.58;101933.25;5114151;28;20043;-69
2021/06/10 03:56:12;;;;;;;11.05;8.43;;;18.40;99.90;;;18.89;65.05;101935.94;5095913;28;20083;-69
2021/06/10 03:58:40;;;;;;;10.18;8.88;;;18.50;99.90;;;18.68;64.94;101906.91;5113864;28;20047;-69
2021/06/10 04:01:08;;;;;;;11.40;9.25;;;18.40;99.90;;;18.27;65.22;101841.69;5113891;28;20035;-69
2021/06/10 04:03:36;;;;;;;12.15;8.73;;;18.40;99.90;;;18.76;65.34;101923.72;5113707;28;20043;-69
2021/06/10 04:06:05;;;;;;;8.38;7.15;;;18.30;99.90;;;18.68;65.01;101925.69;5113760;28;20258;-69
2021/06/10 04:08:34;;;;;;;8.82;7.28;;;18.30;99.90;;;18.88;64.31;101930.63;5113750;28;20039;-69
2021/06/10 04:11:02;;;;;;;11.93;7.38;;;18.40;99.90;;;18.95;64.34;101928.69;5095324;28;20558;-68
2021/06/10 04:13:30;;;;;;;11.02;8.32;;;18.50;99.90;;;18.98;64.31;101925.94;5113596;28;20112;-68
2021/06/10 04:15:58;;;;;;;9.30;8.32;;;18.50;99.90;;;19.01;64.06;101918.69;5095208;28;20047;-68
2021/06/10 04:18:26;;;;;;;8.85;7.88;;;18.50;99.90;;;19.04;63.95;101925.81;5113530;28;20048;-67
2021/06/10 04:20:55;;;;;;;11.55;7.82;;;18.50;99.90;;;18.96;63.98;101901.84;5095233;28;20067;-67
2021/06/10 04:23:23;;;;;;;9.25;8.20;;;18.60;99.90;;;19.02;63.89;101925.84;5094687;28;20047;-68
2021/06/10 04:25:52;;;;;;;8.00;7.05;;;18.60;99.90;;;19.01;64.32;101917.84;5112999;28;20130;-68
2021/06/10 04:28:20;;;;;;;8.18;7.32;;;18.60;99.90;;;18.91;64.20;101909.97;5112554;28;20067;-68
2021/06/10 04:30:48;;;;;;;10.18;7.68;;;18.60;99.90;;;18.96;64.67;101919.72;5113016;28;20120;-69
2021/06/10 04:33:17;;;;;;;9.70;6.97;;;18.50;99.90;;;18.93;64.69;101915.31;5113252;28;20175;-68
2021/06/10 04:35:45;;;;;;;9.80;8.38;;;18.50;99.90;;;18.89;65.36;101914.50;5113198;28;20409;-68
2021/06/10 04:38:14;;;;;;;8.30;7.50;;;18.50;99.90;;;18.89;65.58;101913.63;5113193;28;20044;-68
2021/06/10 04:40:42;;;;;;;9.00;8.10;;;18.50;99.90;;;18.96;65.78;101909.91;5112959;28;20047;-68
2021/06/10 04:43:12;;;;;;;9.40;8.13;;;18.50;99.90;;;19.22;65.73;101923.56;5112917;28;20043;-68
2021/06/10 04:45:40;;;;;;;10.30;8.07;;;18.60;99.90;;;19.31;65.36;101923.38;5113261;28;20040;-68
2021/06/10 04:48:08;;;;;;;8.55;7.35;;;18.80;99.90;;;19.44;65.38;101926.69;5113010;28;20126;-69
2021/06/10 04:50:36;;;;;;;8.98;7.80;;;18.90;99.90;;;19.54;65.58;101930.91;5094695;28;20044;-68
2021/06/10 04:53:05;;;;;;;11.68;8.18;;;19.00;99.90;;;19.56;65.51;101924.59;5112849;28;20054;-69
2021/06/10 04:55:33;;;;;;;10.82;8.48;;;19.10;99.90;;;19.71;65.87;101940.31;5112556;28;20743;-68
2021/06/10 04:58:01;;;;;;;12.27;9.13;;;19.20;99.90;;;19.78;66.09;101938.38;5112935;28;20044;-69
2021/06/10 05:00:30;;;;;;;11.98;9.07;;;19.30;99.90;;;19.69;66.54;101919.78;5112739;28;20043;-68
2021/06/10 05:02:58;;;;;;;14.23;9.43;;;19.30;99.90;;;19.80;67.02;101940.09;5112499;28;20128;-69
2021/06/10 05:05:26;;;;;;;11.85;9.73;;;19.30;99.90;;;19.87;67.26;101940.81;5112788;28;20043;-69
2021/06/10 05:07:54;;;;;;;13.77;10.40;;;19.40;99.90;;;19.92;67.74;101944.25;5112825;28;20044;-68
2021/06/10 05:10:22;;;;;;;14.35;10.30;;;19.50;99.90;;;19.96;68.17;101953.13;5112756;28;20058;-68
2021/06/10 05:12:51;;;;;;;11.52;9.48;;;19.50;99.90;;;20.04;68.23;101943.94;5094480;28;20047;-68
2021/06/10 05:15:19;;;;;;;13.13;10.43;;;19.50;99.90;;;19.96;68.60;101956.69;5112710;28;20048;-68
2021/06/10 05:17:49;;;;;;;12.55;10.40;;;19.50;99.90;;;19.98;68.99;101952.16;5112653;28;20048;-68
2021/06/10 05:20:18;;;;;;;15.00;11.32;;;19.50;99.90;;;20.07;69.32;101946.56;5112767;28;20043;-68
2021/06/10 05:22:46;;;;;;;15.43;10.70;;;19.50;99.90;;;20.09;69.59;101944.69;5112528;28;20035;-69
2021/06/10 05:25:14;;;;;;;17.42;10.55;;;19.60;99.90;;;20.13;69.90;101953.59;5112167;28;20051;-69
2021/06/10 05:27:42;;;;;;;14.52;10.20;;;19.70;99.90;;;20.23;69.63;101958.69;5094300;28;20052;-69
2021/06/10 05:30:11;;;;;;;15.27;10.85;;;19.70;99.90;;;20.33;69.79;101960.22;5094206;28;20047;-70
2021/06/10 05:32:40;;;;;;;18.05;11.10;;;19.80;99.90;;;20.37;69.48;101956.53;5112462;28;20044;-70
2021/06/10 05:35:10;;;;;;;16.73;10.65;;;19.90;99.90;;;20.39;69.36;101952.00;5112224;28;20483;-70
2021/06/10 05:37:38;;;;;;;16.15;11.60;;;19.90;99.90;;;20.42;69.39;101951.88;5112470;28;20040;-70
2021/06/10 05:40:08;;;;;;;17.70;11.73;;;20.00;99.90;;;20.36;69.41;101953.88;5096268;28;20434;-70
2021/06/10 05:42:38;;;;;;;16.50;12.57;;;20.00;99.90;;;20.44;69.82;101930.38;5116294;28;20485;-71
2021/06/10 05:45:08;;;;;;;16.45;11.85;;;20.10;99.90;;;20.63;69.75;101961.19;5116656;28;20542;-70
2021/06/10 05:47:36;;;;;;;19.63;11.85;;;20.20;99.90;;;20.63;69.61;101964.72;5116326;28;20085;-71
2021/06/10 05:50:06;;;;;;;15.65;11.25;;;20.10;99.90;;;20.53;69.15;101971.31;5116177;28;20047;-71
2021/06/10 05:52:36;;;;;;;17.23;10.88;;;20.10;99.90;;;20.62;69.19;101976.44;5097952;28;20048;-71
2021/06/10 05:55:06;;;;;;;14.60;10.82;;;20.10;99.90;;;20.70;69.14;101989.66;5116176;28;20056;-71
2021/06/10 05:57:34;;;;;;;17.30;11.40;;;20.20;99.90;;;20.75;69.05;101978.78;5097856;28;20103;-70
2021/06/10 06:00:06;;;;;;;16.55;11.57;;;20.30;99.90;;;20.89;69.01;101988.19;5097494;28;20052;-70
2021/06/10 06:02:38;;;;;;;15.63;11.00;;;20.40;99.90;;;20.97;69.00;101987.97;5115779;28;20052;-70
2021/06/10 06:05:07;;;;;;;17.48;12.18;;;20.50;99.90;;;20.94;68.36;101980.00;5115836;28;20047;-70
2021/06/10 06:07:37;;;;;;;16.08;12.32;;;20.50;99.90;;;21.03;68.14;101983.34;5115930;28;20055;-70
2021/06/10 06:10:07;;;;;;;14.95;11.73;;;20.50;99.90;;;21.10;68.00;101984.06;5097672;28;20134;-70
2021/06/10 06:12:36;;;;;;;14.83;11.83;;;20.60;99.90;;;21.27;67.80;101987.97;5115976;28;20050;-70
2021/06/10 06:15:05;;;;;;;15.05;12.20;;;20.80;99.90;;;21.38;67.52;101991.22;5115539;28;20297;-71
2021/06/10 06:17:33;;;;;;;17.98;12.05;;;20.90;99.90;;;21.29;66.92;101983.41;5115561;28;20089;-70
2021/06/10 06:20:01;;;;;;;18.98;12.38;;;20.90;99.90;;;21.30;66.57;101979.81;5115452;28;20133;-70
2021/06/10 06:22:30;;;;;;;16.27;11.88;;;20.90;99.90;;;21.27;66.00;101976.34;5097399;28;20279;-68
2021/06/10 06:24:59;;;;;;;14.35;11.18;;;20.90;99.90;;;21.44;66.04;102000.94;5115616;28;20492;-68
2021/06/10 06:27:27;;;;;;;16.52;11.38;;;21.00;99.90;;;21.58;65.71;102002.25;5115437;28;20083;-68
2021/06/10 06:29:55;;;;;;;13.68;11.10;;;21.10;99.90;;;21.71;65.16;102010.81;5115470;28;20455;-68
2021/06/10 06:32:23;;;;;;;16.35;12.65;;;21.30;99.90;;;21.88;65.22;102010.31;5115496;28;20439;-68
2021/06/10 06:34:51;;;;;;;16.80;10.77;;;21.40;99.90;;;22.03;64.46;102021.47;5096894;28;20086;-70
2021/06/10 06:37:18;;;;;;;14.98;11.57;;;21.50;99.90;;;22.01;64.24;102014.38;5115188;28;20420;-69
2021/06/10 06:39:47;;;;;;;14.90;10.77;;;21.60;99.90;;;22.08;64.41;102021.31;5115317;28;20156;-69
2021/06/10 06:42:16;;;;;;;17.83;12.52;;;21.60;99.90;;;21.99;63.49;102016.25;5115370;28;20071;-70
2021/06/10 06:44:44;;;;;;;15.93;11.70;;;21.50;99.90;;;22.09;64.49;102010.47;5115215;28;20036;-70
2021/06/10 06:47:12;;;;;;;23.27;12.43;;;21.60;99.90;;;22.15;64.05;102012.06;5115247;28;20093;-70
2021/06/10 06:49:40;;;;;;;15.77;11.38;;;21.70;99.90;;;22.08;63.71;102006.03;5114882;28;20137;-70
2021/06/10 06:52:08;;;;;;;17.52;11.75;;;21.60;99.90;;;22.11;63.68;102010.41;5114424;28;20074;-70
2021/06/10 06:54:37;;;;;;;15.07;12.35;;;21.60;99.90;;;22.12;63.33;102004.09;5114982;28;20411;-70
2021/06/10 06:57:06;;;;;;;22.55;12.63;;;21.70;99.90;;;22.13;63.18;102004.06;5115528;28;20048;-70
2021/06/10 06:59:35;;;;;;;22.15;12.98;;;21.70;99.90;;;22.28;63.40;102017.00;5115022;28;20047;-70
2021/06/10 07:02:04;;;;;;;16.40;11.23;;;21.80;99.90;;;22.38;63.14;102020.25;5114713;28;20059;-69
2021/06/10 07:04:32;;;;;;;15.55;11.75;;;21.90;99.90;;;22.49;63.33;102023.47;5114580;28;20043;-70
2021/06/10 07:07:00;;;;;;;18.65;12.52;;;22.00;99.90;;;22.55;62.95;102019.69;5114996;28;20047;-71
2021/06/10 07:09:28;;;;;;;21.98;12.30;;;22.10;99.90;;;22.65;62.71;102019.31;5096342;28;20504;-72
2021/06/10 07:11:56;;;;;;;18.15;11.93;;;22.20;99.90;;;22.74;62.01;102018.13;5115019;28;20059;-72
2021/06/10 07:14:24;;;;;;;18.75;12.80;;;22.30;99.90;;;22.77;61.83;102021.56;5114737;28;20046;-71
2021/06/10 07:16:53;;;;;;;15.68;11.77;;;22.40;99.90;;;22.94;62.58;102038.03;5114757;28;20043;-72
2021/06/10 07:19:21;;;;;;;15.93;11.40;;;22.50;99.90;;;23.03;62.40;102045.81;5114353;28;20536;-73
2021/06/10 07:21:51;;;;;;;18.75;12.70;;;22.60;99.90;;;23.02;61.48;102045.84;5096233;28;20047;-72
2021/06/10 07:24:39;;;;;;;16.95;13.02;;;22.70;99.90;;;23.22;61.46;102046.88;5114187;28;20130;-74
2021/06/10 07:27:09;;;;;;;16.50;12.35;;;22.80;99.90;;;23.30;62.03;102035.78;5114661;28;20481;-73
2021/06/10 07:29:37;;;;;;;13.77;11.18;;;22.90;99.90;;;23.34;60.76;102047.38;5114286;28;20511;-73
2021/06/10 07:32:07;;;;;;;14.15;10.80;;;22.90;99.90;;;23.46;60.89;102042.38;5114092;28;20097;-72
2021/06/10 07:34:37;;;;;;;16.13;10.93;;;23.00;99.90;;;23.63;60.73;102056.13;5096132;28;20104;-72
2021/06/10 07:37:07;;;;;;;14.70;10.82;;;23.20;99.90;;;23.72;60.24;102055.75;5114400;28;20147;-72
2021/06/10 07:39:35;;;;;;;14.35;10.10;;;23.30;99.90;;;23.79;59.38;102051.00;5095923;28;20058;-68
2021/06/10 07:42:05;;;;;;;15.27;11.20;;;23.40;99.90;;;23.80;58.42;102058.13;5114232;28;20047;-71
2021/06/10 07:44:33;;;;;;;13.30;10.75;;;23.40;99.90;;;23.97;59.42;102056.50;5113988;28;20126;-70
2021/06/10 07:47:01;;;;;;;14.32;9.90;;;23.50;99.90;;;24.03;59.31;102060.81;5095728;28;20051;-70
2021/06/10 07:49:32;;;;;;;16.63;10.85;;;23.60;99.90;;;23.75;59.22;102050.19;5113679;28;20112;-67
2021/06/10 07:52:01;;;;;;;13.70;10.00;;;23.50;99.90;;;23.81;59.08;102070.72;5113992;28;20103;-67
2021/06/10 07:54:29;;;;;;;12.80;9.88;;;23.50;99.90;;;23.77;59.36;102063.69;5113504;28;20056;-68
2021/06/10 07:56:57;;;;;;;12.68;10.85;;;23.40;99.90;;;23.80;59.41;102069.84;5095407;28;20447;-68
2021/06/10 07:59:26;;;;;;;14.57;10.45;;;23.50;99.90;;;23.88;59.83;102072.22;5113795;28;20047;-68
2021/06/10 08:01:54;;;;;;;16.38;11.80;;;23.50;99.90;;;23.41;59.78;101987.66;5095457;28;20446;-68
2021/06/10 08:04:23;;;;;;;16.27;11.05;;;23.60;99.90;;;23.77;59.10;102040.22;5112386;28;20082;-70
2021/06/10 08:06:52;;;;;;;15.57;11.52;;;23.60;99.90;;;23.98;58.90;102065.50;5113808;28;20371;-68
2021/06/10 08:09:20;;;;;;;16.15;11.73;;;23.70;99.90;;;24.06;58.56;102072.38;5113710;28;20100;-69
2021/06/10 08:11:48;;;;;;;16.88;12.77;;;23.70;99.90;;;24.16;59.55;102062.06;5113233;28;20434;-69
2021/06/10 08:14:16;;;;;;;14.65;11.50;;;23.80;99.90;;;24.23;59.64;102081.63;5113391;28;20144;-68
2021/06/10 08:16:44;;;;;;;17.67;11.98;;;23.90;99.90;;;24.43;59.71;102085.25;5113587;28;20074;-69
2021/06/10 08:19:12;;;;;;;14.73;10.43;;;24.10;99.90;;;24.39;58.55;102090.88;5113352;28;20042;-69
2021/06/10 08:21:40;;;;;;;16.70;10.43;;;24.10;99.90;;;24.50;58.10;102094.00;5113149;28;20089;-69
2021/06/10 08:24:11;;;;;;;12.90;10.68;;;24.20;99.90;;;24.48;58.02;102074.25;5113412;28;20051;-69
2021/06/10 08:26:39;;;;;;;15.27;10.50;;;24.20;99.90;;;24.22;56.70;102009.53;5113471;28;20424;-69
2021/06/10 08:29:07;;;;;;;15.73;9.45;;;24.40;99.90;;;24.72;55.89;102081.31;5094975;28;20071;-69
2021/06/10 08:31:35;;;;;;;12.55;8.88;;;24.40;99.90;;;24.69;54.66;102070.63;5112956;28;20100;-68
2021/06/10 08:34:03;;;;;;;12.90;9.32;;;24.40;99.90;;;24.90;56.03;102072.41;5094939;28;20047;-68
2021/06/10 08:36:32;;;;;;;24.50;20.30;;;24.60;99.90;;;25.07;55.63;102075.22;5113213;28;20122;-69
2021/06/10 08:39:00;;;;;;;14.35;9.25;;;24.80;99.90;;;25.04;54.56;102064.56;5113087;28;20075;-69
2021/06/10 08:41:29;;;;;;;14.38;10.35;;;24.80;99.90;;;25.02;56.11;102061.03;5112731;28;20116;-69
2021/06/10 08:43:59;;;;;;;14.07;9.50;;;24.80;99.90;;;25.24;55.66;102079.91;5094668;28;20489;-68
2021/06/10 08:46:28;;;;;;;13.68;9.70;;;24.90;99.90;;;25.39;54.52;102082.81;5112628;28;20558;-68
2021/06/10 08:48:56;;;;;;;15.52;10.23;;;25.10;99.90;;;25.52;54.55;102084.00;5113065;28;20154;-69
2021/06/10 08:51:24;;;;;;;15.52;10.25;;;25.20;99.90;;;25.22;55.07;102003.22;5112645;28;20451;-69
2021/06/10 08:53:52;;;;;;;14.23;9.30;;;25.30;99.90;;;25.65;54.66;102073.44;5112837;28;20447;-68
2021/06/10 08:56:22;;;;;;;14.98;9.57;;;25.40;99.90;;;25.79;54.43;102074.53;5113004;28;20097;-69
2021/06/10 08:58:51;;;;;;;13.95;10.23;;;25.50;99.90;;;25.97;53.51;102071.88;5094668;28;20067;-69
2021/06/10 09:01:20;;;;;;;15.15;10.30;;;25.60;99.90;;;26.03;53.90;102061.63;5112560;28;20043;-69
2021/06/10 09:03:48;;;;;;;16.77;11.25;;;25.80;99.90;;;26.04;54.51;102079.66;5113156;28;20127;-69
2021/06/10 09:06:18;;;;;;;13.43;10.05;;;25.70;99.90;;;26.29;53.36;102090.19;5112631;28;20048;-69
2021/06/10 09:08:48;;;;;;;19.38;10.48;;;25.90;99.90;;;26.35;53.06;102079.03;5113259;28;20047;-69
2021/06/10 09:11:19;;;;;;;15.68;9.88;;;26.00;99.90;;;26.20;53.96;102058.97;5094509;28;20073;-69
2021/06/10 09:13:53;;;;;;;12.07;9.40;;;26.00;99.90;;;26.38;53.57;102082.50;5112605;28;20122;-69
2021/06/10 09:16:27;;;;;;;15.05;10.02;;;26.00;99.90;;;26.32;53.78;102068.34;5116934;28;20043;-69
2021/06/10 09:19:00;;;;;;;15.82;11.68;;;26.10;99.90;;;26.39;54.13;102077.91;5117097;28;20050;-69
2021/06/10 09:21:31;;;;;;;20.15;11.98;;;26.00;99.90;;;26.43;53.54;102095.81;5116719;28;20047;-69
2021/06/10 09:24:25;;;;;;;19.85;12.07;;;26.10;99.90;;;26.44;54.37;102076.72;5116864;28;20050;-69
2021/06/10 09:27:12;;;;;;;21.98;12.98;;;26.10;99.90;;;26.38;54.33;102082.50;5116464;28;20036;-69
2021/06/10 09:29:45;;;;;;;22.08;13.63;;;26.00;99.90;;;26.44;54.83;102082.16;5116536;28;20112;-68
2021/06/10 09:32:17;;;;;;;15.98;12.50;;;26.10;99.90;;;26.57;55.02;102088.72;5116781;28;20052;-68
2021/06/10 09:34:51;;;;;;;22.30;13.70;;;26.20;99.90;;;26.63;53.68;102093.84;5098427;28;20068;-70
2021/06/10 09:37:34;;;;;;;20.17;13.38;;;26.20;99.90;;;26.57;53.35;102094.16;5098399;28;20101;-69
2021/06/10 09:40:07;;;;;;;19.40;12.30;;;26.20;99.90;;;26.62;54.13;102080.31;5116761;28;20047;-67
2021/06/10 09:42:37;;;;;;;15.63;12.13;;;26.20;99.90;;;26.67;54.00;102094.56;5116514;28;20044;-69
2021/06/10 09:45:10;;;;;;;16.35;11.93;;;26.30;99.90;;;26.39;53.72;102035.38;5098389;28;20072;-68
2021/06/10 09:47:41;;;;;;;19.85;11.77;;;26.20;99.90;;;26.72;53.58;102087.06;5116455;28;20051;-68
2021/06/10 09:50:20;;;;;;;20.30;12.90;;;26.30;99.90;;;26.67;53.26;102086.41;5116657;28;20043;-69
2021/06/10 09:52:53;;;;;;;17.80;14.17;;;26.30;99.90;;;26.69;52.81;102079.06;5098157;28;20043;-72
2021/06/10 09:55:31;;;;;;;1.80;1.77;;;26.30;99.90;;;26.63;53.22;102092.97;5097917;28;20540;-70
2021/06/10 09:58:19;;;;;;;2.13;2.03;;;26.30;99.90;;;26.65;52.79;102083.75;5097642;28;20051;-68
2021/06/10 10:00:54;;;;;;;1.88;1.83;;;26.30;99.90;;;26.71;52.54;102098.91;5115914;28;20079;-70
2021/06/10 10:03:42;;;;;;;1.83;1.80;;;26.40;99.90;;;26.75;52.64;102105.94;5097929;28;20401;-70
2021/06/10 10:06:19;;;;;;;2.10;2.00;;;26.40;99.90;;;26.67;52.01;102075.56;5116211;28;20051;-69
2021/06/10 10:08:50;;;;;;;2.22;2.13;;;26.40;99.90;;;26.56;52.89;102061.63;5116073;28;20075;-70
2021/06/10 10:11:19;;;;;;;1.80;1.77;;;26.30;99.90;;;26.69;52.13;102093.50;5116064;28;20404;-67
2021/06/10 10:13:49;;;;;;;2.22;2.13;;;26.30;99.90;;;26.70;51.42;102089.00;5097675;28;20409;-67